Time;durP1;ratioP1;P1;durP2;ratioP2;P2;SDS_P1;SDS_P2;PMS_P1;PMS_P2;Temp;Humidity;BMP_temperature;BMP_pressure;BME280_temperature;BME280_humidity;BME280_pressure;Samples;Min_cycle;Max_cycle;Signal;HPM_P1;HPM_P2
2023/11/06 00:00:51;;;;;;;;;14.00;13.00;;;;;9.57;100.00;98138.69;6313782;20;2800345;-49
2023/11/06 00:03:20;;;;;;;;;14.67;14.67;;;;;9.77;100.00;98139.72;6280396;20;3531515;-45
2023/11/06 00:05:48;;;;;;;;;16.00;14.00;;;;;9.88;100.00;98143.22;6313893;20;2785828;-45
2023/11/06 00:08:17;;;;;;;;;20.33;18.67;;;;;9.85;100.00;98142.63;6280704;20;3567496;-45
2023/11/06 00:10:45;;;;;;;;;23.00;17.00;;;;;9.69;100.00;98143.06;6281301;20;2713884;-45
2023/11/06 00:13:14;;;;;;;;;18.50;18.00;;;;;9.52;100.00;98157.81;6273605;20;2500313;-45
2023/11/06 00:15:43;;;;;;;;;19.00;19.00;;;;;9.54;100.00;98161.22;6281211;20;2822181;-53
2023/11/06 00:18:12;;;;;;;;;20.50;19.50;;;;;9.43;100.00;98162.09;6279335;20;2839825;-48
2023/11/06 00:20:40;;;;;;;;;22.00;22.00;;;;;9.48;100.00;98171.59;6276973;20;2498241;-47
2023/11/06 00:23:08;;;;;;;;;22.00;22.00;;;;;9.45;100.00;98176.25;6278714;20;2500391;-51
2023/11/06 00:25:37;;;;;;;;;24.50;24.50;;;;;9.34;100.00;98186.94;6281012;20;2844045;-52
2023/11/06 00:28:06;;;;;;;;;24.00;24.00;;;;;9.40;100.00;98196.31;6279307;20;2850341;-47
2023/11/06 00:30:36;;;;;;;;;26.00;25.00;;;;;9.23;100.00;98205.72;6283233;20;3581569;-49
2023/11/06 00:33:05;;;;;;;;;25.33;25.33;;;;;9.39;100.00;98208.00;6311815;20;3591039;-50
2023/11/06 00:35:34;;;;;;;;;30.00;27.00;;;;;9.25;100.00;98208.28;6277695;20;2852425;-39
2023/11/06 00:38:04;;;;;;;;;28.33;27.33;;;;;9.43;100.00;98221.03;6278331;20;2854499;-46
2023/11/06 00:40:33;;;;;;;;;29.33;28.67;;;;;9.35;100.00;98218.13;6314458;20;3600338;-45
2023/11/06 00:43:02;;;;;;;;;29.50;29.50;;;;;9.30;100.00;98219.47;6280713;20;2844106;-45
2023/11/06 00:45:31;;;;;;;;;34.33;31.67;;;;;9.33;100.00;98230.78;6278387;20;3603348;-46
2023/11/06 00:48:00;;;;;;;;;32.33;29.67;;;;;9.58;100.00;98228.81;6312201;20;3606508;-39
2023/11/06 00:50:29;;;;;;;;;32.00;29.50;;;;;9.67;100.00;98225.41;6279464;20;2849250;-40
2023/11/06 00:52:58;;;;;;;;;22.50;22.50;;;;;9.57;100.00;98222.59;6278254;20;2846130;-45
2023/11/06 00:55:28;;;;;;;;;32.33;32.00;;;;;9.56;100.00;98222.75;6277315;20;2851426;-44
2023/11/06 00:57:56;;;;;;;;;30.33;28.67;;;;;9.51;100.00;98236.50;6314261;20;3596194;-48
2023/11/06 01:00:26;;;;;;;;;32.33;28.00;;;;;9.51;100.00;98239.19;6275358;20;3607765;-40
2023/11/06 01:02:55;;;;;;;;;33.00;28.00;;;;;9.48;100.00;98244.78;6312366;20;3610100;-46
2023/11/06 01:05:24;;;;;;;;;33.50;32.50;;;;;9.52;100.00;98254.28;6276549;20;2835691;-45
2023/11/06 01:07:55;;;;;;;;;33.33;30.00;;;;;9.45;100.00;98248.56;6281458;20;3581539;-44
2023/11/06 01:10:25;;;;;;;;;34.00;30.00;;;;;9.67;100.00;98262.91;6310480;20;2842017;-40
2023/11/06 01:12:56;;;;;;;;;38.33;32.00;;;;;9.53;100.00;98265.84;6313295;20;3614994;-40
2023/11/06 01:15:26;;;;;;;;;31.00;28.00;;;;;9.63;100.00;98274.84;6279059;20;2858783;-40
2023/11/06 01:17:56;;;;;;;;;26.33;24.33;;;;;9.95;100.00;98277.59;6312661;20;3583643;-40
2023/11/06 01:20:25;;;;;;;;;32.00;27.00;;;;;10.01;100.00;98284.31;6277100;20;3610687;-40
2023/11/06 01:22:54;;;;;;;;;25.00;25.00;;;;;10.00;100.00;98283.44;6312940;20;3596102;-48
2023/11/06 01:25:24;;;;;;;;;31.33;25.67;;;;;10.01;100.00;98270.91;6279954;20;3591995;-50
2023/11/06 01:27:53;;;;;;;;;29.33;28.33;;;;;10.08;100.00;98277.44;6316124;20;3586692;-49
2023/11/06 01:30:23;;;;;;;;;28.67;26.00;;;;;9.98;100.00;98282.72;6281851;20;2850493;-49
2023/11/06 01:32:53;;;;;;;;;33.33;25.67;;;;;10.08;100.00;98289.03;6316214;20;3648659;-53
2023/11/06 01:35:25;;;;;;;;;32.00;30.67;;;;;10.00;100.00;98293.31;6314777;20;3604386;-51
2023/11/06 01:37:55;;;;;;;;;36.67;32.00;;;;;9.89;100.00;98300.38;6284463;20;2865501;-50
2023/11/06 01:40:24;;;;;;;;;32.00;29.67;;;;;9.74;100.00;98304.34;6318158;20;3587883;-53
2023/11/06 01:42:53;;;;;;;;;30.33;29.00;;;;;9.85;100.00;98315.03;6278062;20;2851434;-50
2023/11/06 01:45:22;;;;;;;;;34.67;32.67;;;;;9.82;100.00;98309.94;6318865;20;3581497;-40
2023/11/06 01:47:52;;;;;;;;;30.00;26.67;;;;;9.90;100.00;98333.44;6281986;20;2854734;-40
2023/11/06 01:50:21;;;;;;;;;32.33;30.33;;;;;9.91;100.00;98335.13;6317503;20;3581647;-42
2023/11/06 01:52:51;;;;;;;;;34.67;30.33;;;;;10.02;100.00;98347.66;6279239;20;2851464;-52
2023/11/06 01:55:20;;;;;;;;;38.33;33.33;;;;;10.01;100.00;98357.53;6317655;20;3584652;-45
2023/11/06 01:57:49;;;;;;;;;33.33;29.33;;;;;9.93;100.00;98364.50;6279926;20;2849335;-45
2023/11/06 02:00:19;;;;;;;;;31.67;30.00;;;;;9.97;100.00;98374.00;6314065;20;3606665;-48
2023/11/06 02:02:49;;;;;;;;;29.67;27.33;;;;;9.96;100.00;98385.72;6280404;20;3599754;-48
2023/11/06 02:05:19;;;;;;;;;31.00;29.00;;;;;9.96;100.00;98380.34;6315024;20;3599250;-52
2023/11/06 02:07:48;;;;;;;;;33.67;29.00;;;;;10.00;100.00;98379.94;6284381;20;2869131;-49
2023/11/06 02:10:17;;;;;;;;;32.33;30.00;;;;;9.97;100.00;98377.53;6316039;20;3605520;-51
2023/11/06 02:12:47;;;;;;;;;27.50;24.00;;;;;9.93;100.00;98372.56;6279953;20;2850315;-44
2023/11/06 02:15:16;;;;;;;;;34.33;30.00;;;;;10.10;100.00;98383.59;6281660;20;3616949;-45
2023/11/06 02:17:45;;;;;;;;;29.33;27.33;;;;;10.04;100.00;98388.63;6317232;20;3600288;-41
2023/11/06 02:20:15;;;;;;;;;25.67;22.00;;;;;10.12;100.00;98378.13;6283122;20;2850339;-40
2023/11/06 02:22:45;;;;;;;;;28.67;26.00;;;;;9.98;100.00;98389.09;6311349;20;3604464;-48
2023/11/06 02:25:14;;;;;;;;;25.00;24.33;;;;;10.03;100.00;98386.91;6316828;20;3590923;-40
2023/11/06 02:27:42;;;;;;;;;27.50;26.00;;;;;9.92;100.00;98385.09;6278346;20;2849305;-41
2023/11/06 02:30:12;;;;;;;;;25.00;23.50;;;;;9.94;100.00;98387.66;6281418;20;2845184;-47
2023/11/06 02:32:40;;;;;;;;;21.00;21.00;;;;;10.11;100.00;98408.63;6280803;20;2848195;-46
2023/11/06 02:35:09;;;;;;;;;23.00;21.50;;;;;9.93;100.00;98415.44;6280656;20;2833734;-45
2023/11/06 02:37:38;;;;;;;;;26.00;23.00;;;;;9.89;100.00;98434.44;6281011;20;2845094;-44
2023/11/06 02:40:08;;;;;;;;;24.00;17.00;;;;;9.92;100.00;98435.19;6284129;20;2833634;-45
2023/11/06 02:42:36;;;;;;;;;16.00;16.00;;;;;10.13;100.00;98436.16;6276663;20;2494065;-45
2023/11/06 02:45:06;;;;;;;;;18.33;17.33;;;;;10.05;100.00;98441.28;6284431;20;2830612;-46
2023/11/06 02:47:35;;;;;;;;;21.00;17.67;;;;;10.11;100.00;98436.28;6312962;20;3566954;-47
2023/11/06 02:50:05;;;;;;;;;19.00;18.00;;;;;10.02;100.00;98447.72;6281981;20;2500302;-44
2023/11/06 02:52:33;;;;;;;;;18.50;17.50;;;;;10.10;100.00;98447.13;6279025;20;2826418;-45
2023/11/06 02:55:02;;;;;;;;;17.00;17.00;;;;;9.85;100.00;98454.44;6278496;20;2492083;-48
2023/11/06 02:57:30;;;;;;;;;18.33;17.00;;;;;9.82;100.00;98457.34;6283362;20;2825306;-45
2023/11/06 03:00:00;;;;;;;;;16.00;16.00;;;;;9.60;100.00;98451.94;6312234;20;3549305;-52
2023/11/06 03:02:28;;;;;;;;;16.50;16.50;;;;;9.48;100.00;98477.00;6278780;20;2500393;-52
2023/11/06 03:04:57;;;;;;;;;20.00;16.50;;;;;9.36;100.00;98476.97;6279850;20;2829662;-51
2023/11/06 03:07:26;;;;;;;;;28.00;26.00;;;;;9.34;100.00;98481.59;6282575;20;2854618;-53
2023/11/06 03:09:55;;;;;;;;;26.00;23.00;;;;;9.09;100.00;98487.09;6279583;20;2840476;-53
2023/11/06 03:12:25;;;;;;;;;31.00;29.67;;;;;9.23;100.00;98479.72;6278349;20;2855481;-50
2023/11/06 03:14:54;;;;;;;;;25.67;25.67;;;;;9.45;100.00;98492.38;6312742;20;3590870;-46
2023/11/06 03:17:23;;;;;;;;;32.50;30.50;;;;;9.06;100.00;98481.94;6279428;20;2839882;-47
2023/11/06 03:19:53;;;;;;;;;37.00;32.00;;;;;9.38;100.00;98477.72;6279574;20;2847422;-40
2023/11/06 03:22:22;;;;;;;;;30.00;29.00;;;;;9.27;100.00;98475.00;6309819;20;2865916;-43
2023/11/06 03:24:51;;;;;;;;;27.00;25.50;;;;;9.43;100.00;98474.69;6311100;20;2849261;-49
2023/11/06 03:27:20;;;;;;;;;26.00;25.67;;;;;9.43;100.00;98464.81;6280717;20;3574640;-49
2023/11/06 03:29:50;;;;;;;;;26.50;25.00;;;;;9.54;100.00;98477.41;6280524;20;2845223;-45
2023/11/06 03:32:19;;;;;;;;;33.67;30.33;;;;;9.20;100.00;98481.78;6279941;20;2852374;-45
2023/11/06 03:34:48;;;;;;;;;36.33;31.67;;;;;9.27;100.00;98484.84;6310737;20;3612812;-40
2023/11/06 03:37:18;;;;;;;;;31.67;30.33;;;;;9.25;100.00;98493.00;6277163;20;3591013;-43
2023/11/06 03:39:47;;;;;;;;;34.33;29.33;;;;;9.23;100.00;98490.44;6312392;20;3610665;-51
2023/11/06 03:42:16;;;;;;;;;33.67;29.33;;;;;9.31;100.00;98492.53;6282223;20;3609737;-51
2023/11/06 03:44:46;;;;;;;;;29.67;27.00;;;;;9.34;100.00;98508.38;6281954;20;2860956;-53
2023/11/06 03:47:15;;;;;;;;;10.75;3.25;;;;;9.25;100.00;98506.41;6329757;20;1819168;-53
2023/11/06 03:49:43;;;;;;;;;27.00;25.50;;;;;8.97;100.00;98519.16;6310335;20;2849296;-45
2023/11/06 03:52:13;;;;;;;;;31.67;29.67;;;;;9.02;100.00;98525.03;6279378;20;3607629;-45
2023/11/06 03:54:42;;;;;;;;;27.67;27.33;;;;;8.75;100.00;98511.00;6313163;20;3593975;-44
2023/11/06 03:57:12;;;;;;;;;32.00;28.67;;;;;8.52;100.00;98502.81;6280190;20;2852404;-44
2023/11/06 03:59:42;;;;;;;;;32.33;29.33;;;;;8.53;100.00;98501.88;6311921;20;3597087;-49
2023/11/06 04:02:11;;;;;;;;;35.33;28.00;;;;;8.63;100.00;98518.09;6310006;20;3607522;-47
2023/11/06 04:04:40;;;;;;;;;33.67;30.00;;;;;7.86;100.00;98523.50;6315163;20;3604456;-50
2023/11/06 04:07:10;;;;;;;;;35.33;32.33;;;;;7.80;100.00;98539.09;6279334;20;2847215;-50
2023/11/06 04:09:41;;;;;;;;;34.33;32.33;;;;;8.26;100.00;98551.94;6310459;20;2843132;-49
2023/11/06 04:12:10;;;;;;;;;34.00;28.33;;;;;8.66;100.00;98565.16;6309944;20;3600253;-47
2023/11/06 04:14:39;;;;;;;;;33.00;28.67;;;;;8.50;100.00;98566.25;6279102;20;2858733;-48
2023/11/06 04:17:08;;;;;;;;;31.00;28.33;;;;;8.85;100.00;98580.78;6311113;20;3612813;-49
2023/11/06 04:19:37;;;;;;;;;33.00;30.00;;;;;8.57;100.00;98566.69;6279618;20;2861951;-48
2023/11/06 04:22:07;;;;;;;;;27.00;26.00;;;;;8.51;100.00;98562.66;6277989;20;2847261;-50
2023/11/06 04:24:36;;;;;;;;;24.50;22.00;;;;;8.47;100.00;98557.63;6281237;20;2827476;-51
2023/11/06 04:27:05;;;;;;;;;24.50;23.00;;;;;8.76;100.00;98555.53;6278027;20;2846093;-39
2023/11/06 04:29:33;;;;;;;;;15.00;15.00;;;;;8.82;100.00;98555.09;6282452;20;2796162;-41
2023/11/06 04:32:03;;;;;;;;;16.00;15.67;;;;;8.95;100.00;98550.56;6281079;20;2829496;-49
2023/11/06 04:34:31;;;;;;;;;14.67;14.00;;;;;9.25;100.00;98540.38;6308523;20;3535692;-50
2023/11/06 04:37:01;;;;;;;;;17.00;13.33;;;;;9.16;100.00;98537.41;6311952;20;3541904;-40
2023/11/06 04:39:29;;;;;;;;;11.00;8.50;;;;;9.41;100.00;98543.59;6310711;20;2767111;-39
2023/11/06 04:41:57;;;;;;;;;12.50;10.50;;;;;9.20;100.00;98554.94;6279721;20;2790311;-46
2023/11/06 04:44:25;;;;;;;;;14.00;11.00;;;;;9.09;100.00;98556.72;6277892;20;2789893;-39
2023/11/06 04:46:55;;;;;;;;;12.80;9.20;;;;;9.19;100.00;98560.44;6304309;20;2774243;-42
2023/11/06 04:49:25;;;;;;;;;11.60;10.80;;;;;9.25;100.00;98565.31;6303560;20;2777379;-51
2023/11/06 04:51:53;;;;;;;;;10.00;8.50;;;;;9.20;100.00;98575.53;6280093;20;2770502;-53
2023/11/06 04:54:21;;;;;;;;;1.67;1.67;;;;;9.25;100.00;98573.34;6298733;20;1817191;-47
2023/11/06 04:56:49;;;;;;;;;7.50;6.50;;;;;9.26;100.00;98584.91;6315448;20;2744134;-46
2023/11/06 04:59:17;;;;;;;;;6.00;5.00;;;;;9.32;100.00;98589.81;6313761;20;2737902;-47
2023/11/06 05:01:45;;;;;;;;;4.00;4.00;;;;;9.43;100.00;98593.41;6278551;20;2751349;-47
2023/11/06 05:04:15;;;;;;;;;2.50;2.50;;;;;9.40;100.00;98599.00;6284035;20;2732635;-45
2023/11/06 05:06:43;;;;;;;;;4.50;3.00;;;;;9.47;100.00;98612.78;6311611;20;2737908;-47
2023/11/06 05:09:11;;;;;;;;;3.00;3.00;;;;;9.56;100.00;98608.59;6316025;20;2745091;-50
2023/11/06 05:11:40;;;;;;;;;2.00;2.00;;;;;9.52;100.00;98617.81;6277091;20;2743067;-48
2023/11/06 05:14:07;;;;;;;;;4.00;4.00;;;;;9.65;100.00;98624.81;6283552;20;2751389;-50
2023/11/06 05:16:36;;;;;;;;;4.00;4.00;;;;;9.55;100.00;98633.66;6279468;20;2745179;-50
2023/11/06 05:19:07;;;;;;;;;3.00;3.00;;;;;9.49;100.00;98650.19;6322355;20;2574274;-54
2023/11/06 05:21:36;;;;;;;;;3.75;3.75;;;;;9.45;100.00;98649.56;6299424;20;1809739;-48
2023/11/06 05:24:05;;;;;;;;;4.50;3.00;;;;;9.42;100.00;98653.31;6312898;20;2741957;-49
2023/11/06 05:26:33;;;;;;;;;2.00;2.00;;;;;9.52;100.00;98663.38;6279378;20;2753412;-45
2023/11/06 05:29:02;;;;;;;;;4.00;2.00;;;;;9.67;100.00;98659.56;6297631;20;1810410;-50
2023/11/06 05:31:31;;;;;;;;;1.00;1.00;;;;;9.59;100.00;98661.97;6324137;20;1807754;-49
2023/11/06 05:33:59;;;;;;;;;2.00;2.00;;;;;9.54;100.00;98674.84;6310410;20;2742013;-39
2023/11/06 05:36:29;;;;;;;;;1.50;1.00;;;;;9.69;100.00;98673.72;6298034;20;1802424;-38
2023/11/06 05:38:57;;;;;;;;;3.00;3.00;;;;;9.79;100.00;98685.44;6311791;20;2732602;-48
2023/11/06 05:41:26;;;;;;;;;5.00;3.50;;;;;9.82;100.00;98704.00;6295732;20;1814042;-51
2023/11/06 05:43:55;;;;;;;;;3.00;3.00;;;;;9.78;100.00;98693.59;6310503;20;2744040;-51
2023/11/06 05:46:24;;;;;;;;;3.00;3.00;;;;;9.87;100.00;98703.63;6286548;20;2627470;-42
2023/11/06 05:48:52;;;;;;;;;3.00;3.00;;;;;10.04;100.00;98707.75;6278863;20;2749274;-46
2023/11/06 05:51:20;;;;;;;;;3.00;3.00;;;;;10.18;99.60;98717.44;6278263;20;2741961;-53
2023/11/06 05:53:49;;;;;;;;;2.75;2.75;;;;;10.10;99.62;98709.97;6297604;20;1812951;-49
2023/11/06 05:56:18;;;;;;;;;3.60;3.00;;;;;10.00;100.00;98731.22;6331884;20;2740970;-48
2023/11/06 05:58:47;;;;;;;;;4.50;3.00;;;;;10.09;99.77;98740.44;6311073;20;2744166;-48
2023/11/06 06:01:16;;;;;;;;;3.00;3.00;;;;;10.35;97.83;98734.94;6291907;20;3458635;-44
2023/11/06 06:03:45;;;;;;;;;1.00;1.00;;;;;10.78;95.51;98732.50;6298849;20;1813947;-47
2023/11/06 06:06:16;;;;;;;;;2.50;1.00;;;;;10.87;94.69;98725.56;6329842;20;1806205;-39
2023/11/06 06:08:44;;;;;;;;;1.50;1.50;;;;;11.01;93.99;98736.09;6312581;20;2733727;-39
2023/11/06 06:11:12;;;;;;;;;2.00;2.00;;;;;11.65;92.35;98749.75;6281285;20;2754563;-39
2023/11/06 06:13:40;;;;;;;;;3.00;2.00;;;;;11.57;90.83;98741.47;6284989;20;2750347;-50
2023/11/06 06:16:09;;;;;;;;;2.50;2.00;;;;;11.16;92.38;98740.25;6283817;20;2748330;-48
2023/11/06 06:18:37;;;;;;;;;2.00;2.00;;;;;11.11;92.37;98739.78;6285206;20;2746195;-53
2023/11/06 06:21:06;;;;;;;;;4.00;3.00;;;;;11.08;92.40;98750.72;6299393;20;1806522;-45
2023/11/06 06:23:38;;;;;;;;;2.33;2.33;;;;;11.11;92.96;98747.84;6357323;20;1796594;-39
2023/11/06 06:26:06;;;;;;;;;2.00;2.00;;;;;10.86;94.13;98750.72;6305324;20;1816039;-42
2023/11/06 06:28:34;;;;;;;;;6.00;3.00;;;;;10.84;93.70;98755.34;6284952;20;2748214;-43
2023/11/06 06:31:02;;;;;;;;;3.50;3.50;;;;;10.61;95.36;98755.31;6284427;20;2745084;-52
2023/11/06 06:33:30;;;;;;;;;4.50;4.50;;;;;10.62;95.81;98758.84;6285316;20;2744040;-48
2023/11/06 06:35:58;;;;;;;;;4.50;2.00;;;;;10.51;96.15;98760.50;6281217;20;2747202;-51
2023/11/06 06:38:26;;;;;;;;;2.00;2.00;;;;;10.48;96.75;98776.84;6286505;20;2744015;-41
2023/11/06 06:40:56;;;;;;;;;3.00;3.00;;;;;10.39;96.93;98771.31;6300976;20;1808686;-45
2023/11/06 06:43:25;;;;;;;;;3.00;3.00;;;;;10.43;97.21;98786.22;6332785;20;1815000;-45
2023/11/06 06:45:53;;;;;;;;;5.00;3.00;;;;;10.25;98.74;98794.66;6316577;20;2750414;-50
2023/11/06 06:48:21;;;;;;;;;3.00;3.00;;;;;10.30;98.55;98805.94;6285435;20;2748190;-54
2023/11/06 06:50:50;;;;;;;;;3.00;3.00;;;;;10.29;98.72;98822.13;6285483;20;3447192;-46
2023/11/06 06:53:18;;;;;;;;;6.00;4.00;;;;;10.28;99.18;98826.63;6284306;20;2742013;-52
2023/11/06 06:55:46;;;;;;;;;3.00;2.00;;;;;12.01;95.36;98831.16;6284524;20;2755494;-51
2023/11/06 06:58:15;;;;;;;;;2.75;2.25;;;;;12.48;85.14;98834.47;6301852;20;1810808;-44
2023/11/06 07:00:44;;;;;;;;;3.00;3.00;;;;;10.71;93.53;98839.50;6318828;20;2738877;-43
2023/11/06 07:03:12;;;;;;;;;3.00;3.00;;;;;10.63;93.92;98844.59;6285465;20;2737788;-38
2023/11/06 07:05:41;;;;;;;;;3.75;3.00;;;;;10.69;93.49;98849.53;6304071;20;1805379;-39
2023/11/06 07:08:10;;;;;;;;;3.00;3.00;;;;;10.66;92.91;98855.09;6316159;20;2748260;-44
2023/11/06 07:10:38;;;;;;;;;4.00;3.00;;;;;10.87;91.16;98858.00;6287636;20;2742042;-40
2023/11/06 07:13:06;;;;;;;;;2.25;2.00;;;;;10.81;91.11;98857.63;6300902;20;1809608;-38
2023/11/06 07:15:34;;;;;;;;;3.00;3.00;;;;;10.64;92.19;98865.13;6315365;20;2748231;-39
2023/11/06 07:18:06;;;;;;;;;4.00;4.00;;;;;10.62;94.31;98864.38;6283187;20;2748388;-46
2023/11/06 07:20:34;;;;;;;;;3.00;3.00;;;;;10.39;96.11;98865.25;6287936;20;2747260;-45
2023/11/06 07:23:03;;;;;;;;;3.00;2.00;;;;;10.38;97.58;98863.53;6281090;20;2752367;-46
2023/11/06 07:25:31;;;;;;;;;3.00;3.00;;;;;10.40;97.80;98873.19;6282022;20;2750339;-47
2023/11/06 07:27:59;;;;;;;;;2.00;2.00;;;;;10.61;97.62;98865.38;6299087;20;1805576;-53
2023/11/06 07:30:27;;;;;;;;;3.50;2.00;;;;;11.42;94.54;98866.31;6317142;20;2741923;-54
2023/11/06 07:32:55;;;;;;;;;5.00;4.00;;;;;11.76;93.04;98869.91;6282908;20;2756591;-53
2023/11/06 07:35:23;;;;;;;;;3.00;3.00;;;;;12.14;91.93;98875.88;6286678;20;2735785;-51
2023/11/06 07:37:52;;;;;;;;;2.00;2.00;;;;;11.97;91.98;98872.72;6298866;20;1803454;-50
2023/11/06 07:40:20;;;;;;;;;6.00;5.00;;;;;11.87;91.72;98882.50;6317238;20;2745168;-53
2023/11/06 07:42:48;;;;;;;;;4.00;4.00;;;;;12.68;90.12;98885.81;6284363;20;2743073;-40
2023/11/06 07:45:16;;;;;;;;;3.00;3.00;;;;;12.65;90.01;98886.91;6286735;20;2735673;-42
2023/11/06 07:47:44;;;;;;;;;3.50;3.50;;;;;12.08;90.54;98898.78;6285815;20;2739865;-45
2023/11/06 07:50:13;;;;;;;;;4.00;3.00;;;;;11.61;93.33;98903.38;6285414;20;2746223;-44
2023/11/06 07:52:40;;;;;;;;;3.00;3.00;;;;;11.25;94.70;98918.72;6284177;20;2731633;-45
2023/11/06 07:55:09;;;;;;;;;3.50;3.50;;;;;10.77;97.57;98921.47;6285462;20;2740031;-45
2023/11/06 07:57:36;;;;;;;;;6.00;4.00;;;;;11.10;94.89;98909.97;6285012;20;2637796;-47
2023/11/06 08:00:05;;;;;;;;;4.50;4.50;;;;;10.75;95.62;98909.97;6283373;20;2750322;-52
2023/11/06 08:02:35;;;;;;;;;9.00;7.00;;;;;11.00;95.67;98925.06;6279853;20;2748265;-50
2023/11/06 08:05:04;;;;;;;;;18.00;16.00;;;;;11.06;95.02;98924.63;6283381;20;2483609;-53
2023/11/06 08:07:32;;;;;;;;;11.00;9.00;;;;;11.32;94.14;98935.19;6280918;20;2774283;-51
2023/11/06 08:10:00;;;;;;;;;7.00;7.00;;;;;11.84;92.01;98931.16;6290173;20;2735774;-51
2023/11/06 08:12:29;;;;;;;;;3.50;3.50;;;;;11.78;91.17;98932.50;6285064;20;2749352;-50
2023/11/06 08:14:57;;;;;;;;;8.00;7.00;;;;;11.79;92.85;98930.66;6288672;20;2737119;-44
2023/11/06 08:17:25;;;;;;;;;6.00;6.00;;;;;11.80;92.49;98935.06;6283434;20;2743093;-47
2023/11/06 08:19:53;;;;;;;;;8.00;6.00;;;;;11.76;92.76;98944.34;6284269;20;2743088;-47
2023/11/06 08:22:23;;;;;;;;;6.00;5.00;;;;;11.80;92.45;98948.53;6283868;20;2750315;-39
2023/11/06 08:24:51;;;;;;;;;4.00;3.00;;;;;11.89;92.22;98955.88;6284857;20;2745114;-41
2023/11/06 08:27:19;;;;;;;;;3.50;3.00;;;;;11.71;94.01;98950.06;6285062;20;2748239;-40
2023/11/06 08:29:47;;;;;;;;;5.00;3.00;;;;;11.88;93.83;98954.19;6286599;20;2745060;-52
2023/11/06 08:32:16;;;;;;;;;1.50;1.50;;;;;11.69;94.34;98970.00;6286574;20;2729633;-41
2023/11/06 08:34:45;;;;;;;;;2.00;2.00;;;;;11.76;95.14;98969.41;6283941;20;2746315;-40
2023/11/06 08:37:14;;;;;;;;;5.50;5.00;;;;;11.83;94.48;98967.09;6286168;20;2733714;-46
2023/11/06 08:39:46;;;;;;;;;3.50;3.50;;;;;11.68;94.51;98979.06;6284845;20;2756629;-43
2023/11/06 08:42:16;;;;;;;;;7.50;4.75;;;;;12.60;90.68;98980.69;6298176;20;1813966;-52
2023/11/06 08:44:45;;;;;;;;;3.00;3.00;;;;;13.00;87.87;98990.91;6317607;20;2750285;-48
2023/11/06 08:47:19;;;;;;;;;2.50;2.00;;;;;13.03;87.24;98987.09;6286097;20;2742115;-50
2023/11/06 08:49:47;;;;;;;;;4.00;3.00;;;;;13.48;87.17;98995.91;6286793;20;2738807;-49
2023/11/06 08:52:16;;;;;;;;;3.50;3.00;;;;;13.39;86.20;98994.81;6284503;20;2736860;-39
2023/11/06 08:54:45;;;;;;;;;3.00;3.00;;;;;13.54;85.95;99002.63;6286939;20;2754869;-42
2023/11/06 08:57:15;;;;;;;;;2.50;2.00;;;;;13.59;84.38;99008.47;6286519;20;2730496;-44
2023/11/06 08:59:43;;;;;;;;;19.00;18.00;;;;;13.88;84.72;99013.22;6279939;20;2483717;-47
2023/11/06 09:02:11;;;;;;;;;4.00;3.00;;;;;13.37;86.35;99015.66;6283628;20;2736855;-49
2023/11/06 09:04:41;;;;;;;;;23.00;21.00;;;;;14.01;84.93;99024.69;6280297;20;2837977;-47
2023/11/06 09:07:10;;;;;;;;;12.50;10.50;;;;;14.03;83.21;99022.69;6311974;20;2494051;-50
2023/11/06 09:09:40;;;;;;;;;7.00;7.00;;;;;13.89;85.80;99033.81;6288363;20;2747155;-46
2023/11/06 09:12:08;;;;;;;;;7.00;5.00;;;;;13.66;86.40;99025.84;6285580;20;2740964;-49
2023/11/06 09:14:37;;;;;;;;;4.00;4.00;;;;;13.87;87.15;99033.94;6281644;20;2756568;-43
2023/11/06 09:17:05;;;;;;;;;4.00;4.00;;;;;14.41;84.05;99045.50;6284349;20;2748649;-39
2023/11/06 09:19:33;;;;;;;;;6.00;4.00;;;;;14.41;85.13;99045.50;6284960;20;2753625;-46
2023/11/06 09:22:01;;;;;;;;;5.00;3.00;;;;;15.03;82.64;99046.31;6281835;20;2755535;-42
2023/11/06 09:24:30;;;;;;;;;4.00;3.50;;;;;15.23;82.87;99045.38;6288035;20;2753828;-47
2023/11/06 09:26:58;;;;;;;;;4.00;4.00;;;;;15.46;80.23;99055.94;6287437;20;2749295;-50
2023/11/06 09:29:26;;;;;;;;;4.00;4.00;;;;;15.32;80.87;99057.19;6283826;20;2754568;-43
2023/11/06 09:31:54;;;;;;;;;5.50;5.00;;;;;15.03;82.75;99057.13;6284516;20;2748316;-51
2023/11/06 09:34:23;;;;;;;;;5.75;4.00;;;;;15.07;80.57;99059.44;6299731;20;1804549;-49
2023/11/06 09:36:52;;;;;;;;;14.33;11.33;;;;;15.46;80.53;99061.34;6310183;20;3516014;-47
2023/11/06 09:39:21;;;;;;;;;3.50;3.50;;;;;15.06;79.58;99060.44;6279867;20;2748187;-49
2023/11/06 09:41:50;;;;;;;;;3.00;2.00;;;;;15.56;74.35;99054.94;6282155;20;2744026;-51
2023/11/06 09:44:18;;;;;;;;;1.00;1.00;;;;;15.15;74.66;99054.19;6285299;20;2730525;-47
2023/11/06 09:46:47;;;;;;;;;1.00;1.00;;;;;15.36;73.69;99062.19;6285519;20;2728412;-44
2023/11/06 09:49:26;;;;;;;;;3.00;2.00;;;;;15.38;71.17;99053.94;6291889;20;2744057;-49
2023/11/06 09:51:55;;;;;;;;;1.50;1.50;;;;;15.31;72.64;99056.34;6288422;20;2741960;-39
2023/11/06 09:54:24;;;;;;;;;2.00;1.00;;;;;15.19;74.21;99057.44;6305497;20;1803647;-50
2023/11/06 09:56:54;;;;;;;;;2.00;2.00;;;;;15.82;69.08;99062.50;6321109;20;2735794;-52
2023/11/06 09:59:24;;;;;;;;;3.50;1.50;;;;;15.56;67.81;99063.06;6291737;20;2724309;-49
2023/11/06 10:01:53;;;;;;;;;4.00;2.00;;;;;15.39;67.42;99063.75;6290664;20;2748343;-39
2023/11/06 10:04:22;;;;;;;;;1.00;1.00;;;;;15.80;66.64;99062.69;6293574;20;2725392;-48
2023/11/06 10:06:51;;;;;;;;;1.00;1.00;;;;;15.57;66.63;99069.34;6292387;20;2723294;-38
2023/11/06 10:09:24;;;;;;;;;1.00;1.00;;;;;15.51;64.22;99073.47;6293612;20;2727863;-41
2023/11/06 10:11:57;;;;;;;;;1.00;1.00;;;;;15.99;63.27;99074.50;6289362;20;2720214;-47
2023/11/06 10:14:38;;;;;;;;;3.00;1.00;;;;;15.90;62.29;99075.34;6294188;20;2734728;-49
2023/11/06 10:17:07;;;;;;;;;1.75;1.75;;;;;15.48;61.72;99065.63;6303996;20;1795255;-46
2023/11/06 10:19:35;;;;;;;;;2.00;2.00;;;;;15.37;63.00;99076.56;6321092;20;2739875;-43
2023/11/06 10:22:15;;;;;;;;;1.00;1.00;;;;;15.52;64.93;99077.88;6305329;20;1798428;-44
2023/11/06 10:24:53;;;;;;;;;1.50;1.00;;;;;15.89;61.53;99084.47;6319345;20;2737834;-45
2023/11/06 10:27:26;;;;;;;;;1.00;1.00;;;;;16.20;60.45;99087.88;6291825;20;2729460;-48
2023/11/06 10:30:00;;;;;;;;;2.25;2.00;;;;;16.21;59.85;99089.56;6306723;20;1790910;-53
2023/11/06 10:32:28;;;;;;;;;2.00;2.00;;;;;16.13;58.48;99094.84;6320853;20;2744052;-41
2023/11/06 10:35:10;;;;;;;;;1.00;1.00;;;;;16.15;60.11;99098.28;6290139;20;2729572;-48
2023/11/06 10:37:46;;;;;;;;;1.00;1.00;;;;;15.62;60.68;99098.69;6292296;20;2732605;-53
2023/11/06 10:40:19;;;;;;;;;1.00;1.00;;;;;15.23;62.64;99099.47;6292344;20;2722251;-55
2023/11/06 10:42:49;;;;;;;;;3.00;2.00;;;;;15.45;61.47;99097.50;6291366;20;2750262;-47
2023/11/06 10:45:18;;;;;;;;;2.00;2.00;;;;;15.87;61.32;99098.13;6292831;20;2733704;-50
2023/11/06 10:47:54;;;;;;;;;1.00;1.00;;;;;16.22;60.46;99104.84;6304851;20;1800337;-50
2023/11/06 10:50:24;;;;;;;;;2.00;1.00;;;;;16.42;60.27;99098.34;6319465;20;2732785;-51
2023/11/06 10:52:55;;;;;;;;;1.00;1.00;;;;;16.79;59.55;99102.97;6290927;20;2752433;-40
2023/11/06 10:55:23;;;;;;;;;3.50;3.00;;;;;16.84;59.80;99099.81;6290766;20;2752442;-47
2023/11/06 10:58:00;;;;;;;;;5.00;5.00;;;;;16.88;58.86;99107.53;6286414;20;2747153;-46
2023/11/06 11:00:31;;;;;;;;;1.00;1.00;;;;;16.35;60.01;99102.66;6290597;20;2723198;-45
2023/11/06 11:03:00;;;;;;;;;3.00;1.00;;;;;16.65;59.43;99100.72;6290924;20;2731631;-48
2023/11/06 11:05:33;;;;;;;;;2.50;1.00;;;;;16.34;59.99;99114.47;6291542;20;2744093;-46
2023/11/06 11:08:05;;;;;;;;;1.50;1.50;;;;;16.50;58.63;99100.34;6293623;20;2730611;-40
2023/11/06 11:10:33;;;;;;;;;2.50;1.00;;;;;16.80;57.81;99107.41;6291364;20;2727445;-50
2023/11/06 11:13:03;;;;;;;;;1.00;1.00;;;;;16.39;59.96;99108.63;6302770;20;2727372;-51
2023/11/06 11:15:34;;;;;;;;;1.00;1.00;;;;;16.73;59.73;99110.84;6294798;20;2726334;-51
2023/11/06 11:18:13;;;;;;;;;3.00;1.00;;;;;16.56;59.64;99115.16;6296769;20;2730271;-46